sensor_id;sensor_type;location;lat;lon;timestamp;P1;durP1;ratioP1;P2;durP2;ratioP2
17032;SDS011;63208;52.178;21.016;2022-12-05T02:31:17;10.87;;;5.63;;
17032;SDS011;63208;52.178;21.016;2022-12-05T02:33:54;12.80;;;6.77;;
17032;SDS011;63208;52.178;21.016;2022-12-05T02:36:34;11.90;;;6.07;;
17032;SDS011;63208;52.178;21.016;2022-12-05T02:39:08;12.00;;;6.03;;
17032;SDS011;63208;52.178;21.016;2022-12-05T02:41:43;12.40;;;6.77;;
17032;SDS011;63208;52.178;21.016;2022-12-05T02:44:14;11.13;;;5.77;;
17032;SDS011;63208;52.178;21.016;2022-12-05T02:46:47;10.57;;;5.50;;
17032;SDS011;63208;52.178;21.016;2022-12-05T02:49:18;12.83;;;6.37;;
17032;SDS011;63208;52.178;21.016;2022-12-05T02:51:51;13.60;;;5.87;;
17032;SDS011;63208;52.178;21.016;2022-12-05T02:54:22;9.77;;;5.57;;
17032;SDS011;63208;52.178;21.016;2022-12-05T02:56:52;10.27;;;4.90;;
17032;SDS011;63208;52.178;21.016;2022-12-05T02:59:22;8.67;;;4.77;;
17032;SDS011;63208;52.178;21.016;2022-12-05T03:01:51;9.73;;;5.17;;
17032;SDS011;63208;52.178;21.016;2022-12-05T03:04:18;7.93;;;4.57;;
17032;SDS011;63208;52.178;21.016;2022-12-05T03:06:50;9.03;;;4.87;;
17032;SDS011;63208;52.178;21.016;2022-12-05T03:09:22;8.67;;;5.00;;
17032;SDS011;63208;52.178;21.016;2022-12-05T03:11:53;8.30;;;4.40;;
17032;SDS011;63208;52.178;21.016;2022-12-05T03:14:26;8.37;;;5.50;;
17032;SDS011;63208;52.178;21.016;2022-12-05T03:17:01;7.83;;;4.53;;
17032;SDS011;63208;52.178;21.016;2022-12-05T03:19:33;9.97;;;4.77;;
17032;SDS011;63208;52.178;21.016;2022-12-05T03:22:09;7.80;;;4.43;;
17032;SDS011;63208;52.178;21.016;2022-12-05T03:24:41;10.47;;;5.80;;
17032;SDS011;63208;52.178;21.016;2022-12-05T03:27:12;9.57;;;4.83;;
17032;SDS011;63208;52.178;21.016;2022-12-05T03:29:49;8.03;;;3.97;;
17032;SDS011;63208;52.178;21.016;2022-12-05T03:32:23;9.40;;;5.23;;
17032;SDS011;63208;52.178;21.016;2022-12-05T03:35:00;8.53;;;4.70;;
17032;SDS011;63208;52.178;21.016;2022-12-05T03:37:34;7.80;;;5.33;;
17032;SDS011;63208;52.178;21.016;2022-12-05T03:40:08;12.33;;;6.10;;
17032;SDS011;63208;52.178;21.016;2022-12-05T03:42:41;8.53;;;5.27;;
17032;SDS011;63208;52.178;21.016;2022-12-05T03:45:15;9.23;;;5.33;;
17032;SDS011;63208;52.178;21.016;2022-12-05T03:47:54;9.70;;;5.40;;
17032;SDS011;63208;52.178;21.016;2022-12-05T03:50:28;6.80;;;4.57;;
17032;SDS011;63208;52.178;21.016;2022-12-05T03:53:00;9.67;;;4.77;;
17032;SDS011;63208;52.178;21.016;2022-12-05T03:55:33;9.60;;;5.53;;
17032;SDS011;63208;52.178;21.016;2022-12-05T03:58:05;9.20;;;5.20;;
17032;SDS011;63208;52.178;21.016;2022-12-05T04:00:38;11.00;;;5.67;;
17032;SDS011;63208;52.178;21.016;2022-12-05T04:03:09;10.30;;;6.10;;
17032;SDS011;63208;52.178;21.016;2022-12-05T04:05:41;7.47;;;5.07;;
17032;SDS011;63208;52.178;21.016;2022-12-05T04:08:12;8.90;;;5.50;;
17032;SDS011;63208;52.178;21.016;2022-12-05T04:10:45;8.03;;;5.70;;
17032;SDS011;63208;52.178;21.016;2022-12-05T04:13:16;7.27;;;4.83;;
17032;SDS011;63208;52.178;21.016;2022-12-05T04:15:48;9.47;;;6.07;;
17032;SDS011;63208;52.178;21.016;2022-12-05T04:18:45;6.47;;;4.47;;
17032;SDS011;63208;52.178;21.016;2022-12-05T04:21:16;9.57;;;5.63;;
17032;SDS011;63208;52.178;21.016;2022-12-05T04:24:01;8.40;;;4.77;;
17032;SDS011;63208;52.178;21.016;2022-12-05T04:26:46;5.80;;;4.13;;
17032;SDS011;63208;52.178;21.016;2022-12-05T04:29:24;8.37;;;4.63;;
17032;SDS011;63208;52.178;21.016;2022-12-05T04:31:56;7.53;;;4.90;;
17032;SDS011;63208;52.178;21.016;2022-12-05T04:34:27;9.27;;;5.10;;
17032;SDS011;63208;52.178;21.016;2022-12-05T04:36:58;9.60;;;5.13;;
17032;SDS011;63208;52.178;21.016;2022-12-05T04:39:28;8.13;;;5.17;;
17032;SDS011;63208;52.178;21.016;2022-12-05T04:42:02;8.20;;;4.70;;
17032;SDS011;63208;52.178;21.016;2022-12-05T04:44:33;7.17;;;4.47;;
17032;SDS011;63208;52.178;21.016;2022-12-05T04:47:04;6.67;;;4.43;;
17032;SDS011;63208;52.178;21.016;2022-12-05T04:49:35;9.20;;;4.87;;
17032;SDS011;63208;52.178;21.016;2022-12-05T04:52:06;6.73;;;4.53;;
17032;SDS011;63208;52.178;21.016;2022-12-05T04:54:36;9.83;;;5.57;;
17032;SDS011;63208;52.178;21.016;2022-12-05T04:57:08;9.97;;;4.70;;
17032;SDS011;63208;52.178;21.016;2022-12-05T04:59:38;11.53;;;5.33;;
17032;SDS011;63208;52.178;21.016;2022-12-05T05:02:06;11.00;;;5.27;;
17032;SDS011;63208;52.178;21.016;2022-12-05T05:07:12;8.43;;;5.17;;
17032;SDS011;63208;52.178;21.016;2022-12-05T05:09:43;7.20;;;4.60;;
17032;SDS011;63208;52.178;21.016;2022-12-05T05:12:11;7.60;;;4.33;;
17032;SDS011;63208;52.178;21.016;2022-12-05T05:14:38;8.73;;;5.67;;
17032;SDS011;63208;52.178;21.016;2022-12-05T05:17:07;7.97;;;5.27;;
17032;SDS011;63208;52.178;21.016;2022-12-05T05:19:35;7.23;;;5.03;;
17032;SDS011;63208;52.178;21.016;2022-12-05T05:22:03;8.87;;;4.83;;
17032;SDS011;63208;52.178;21.016;2022-12-05T05:24:32;6.83;;;4.73;;
17032;SDS011;63208;52.178;21.016;2022-12-05T05:27:00;7.23;;;5.43;;
17032;SDS011;63208;52.178;21.016;2022-12-05T05:29:28;13.73;;;4.83;;
17032;SDS011;63208;52.178;21.016;2022-12-05T05:31:55;9.40;;;5.40;;
17032;SDS011;63208;52.178;21.016;2022-12-05T05:34:22;9.03;;;4.83;;
17032;SDS011;63208;52.178;21.016;2022-12-05T05:36:52;8.10;;;5.00;;
17032;SDS011;63208;52.178;21.016;2022-12-05T05:42:44;9.03;;;4.20;;
17032;SDS011;63208;52.178;21.016;2022-12-05T05:45:30;9.53;;;5.10;;
17032;SDS011;63208;52.178;21.016;2022-12-05T05:47:57;8.93;;;4.87;;
17032;SDS011;63208;52.178;21.016;2022-12-05T05:50:25;7.00;;;5.00;;
17032;SDS011;63208;52.178;21.016;2022-12-05T05:52:55;8.23;;;5.00;;
17032;SDS011;63208;52.178;21.016;2022-12-05T05:55:22;8.70;;;5.00;;
17032;SDS011;63208;52.178;21.016;2022-12-05T05:57:51;9.67;;;5.73;;
17032;SDS011;63208;52.178;21.016;2022-12-05T06:00:18;8.57;;;4.57;;
17032;SDS011;63208;52.178;21.016;2022-12-05T06:02:46;10.50;;;4.00;;
17032;SDS011;63208;52.178;21.016;2022-12-05T06:05:14;13.03;;;5.47;;
17032;SDS011;63208;52.178;21.016;2022-12-05T06:07:42;9.50;;;4.60;;
17032;SDS011;63208;52.178;21.016;2022-12-05T06:10:10;10.00;;;5.63;;
17032;SDS011;63208;52.178;21.016;2022-12-05T06:12:39;11.50;;;4.43;;
17032;SDS011;63208;52.178;21.016;2022-12-05T06:15:13;9.03;;;5.07;;
17032;SDS011;63208;52.178;21.016;2022-12-05T06:17:41;7.90;;;5.40;;
17032;SDS011;63208;52.178;21.016;2022-12-05T06:23:01;7.27;;;4.83;;
17032;SDS011;63208;52.178;21.016;2022-12-05T06:25:28;9.63;;;5.93;;
17032;SDS011;63208;52.178;21.016;2022-12-05T06:27:55;8.33;;;5.17;;
17032;SDS011;63208;52.178;21.016;2022-12-05T06:30:33;9.87;;;5.27;;
17032;SDS011;63208;52.178;21.016;2022-12-05T06:33:00;10.20;;;4.87;;
17032;SDS011;63208;52.178;21.016;2022-12-05T06:35:27;12.33;;;5.50;;
17032;SDS011;63208;52.178;21.016;2022-12-05T06:37:54;9.23;;;5.00;;
17032;SDS011;63208;52.178;21.016;2022-12-05T06:40:21;7.80;;;5.37;;
17032;SDS011;63208;52.178;21.016;2022-12-05T06:42:49;9.53;;;5.03;;
17032;SDS011;63208;52.178;21.016;2022-12-05T06:45:16;9.53;;;5.27;;
17032;SDS011;63208;52.178;21.016;2022-12-05T06:47:44;7.67;;;5.03;;
17032;SDS011;63208;52.178;21.016;2022-12-05T06:50:15;10.53;;;5.70;;
17032;SDS011;63208;52.178;21.016;2022-12-05T06:52:43;7.40;;;4.97;;
17032;SDS011;63208;52.178;21.016;2022-12-05T06:55:10;11.43;;;5.97;;
17032;SDS011;63208;52.178;21.016;2022-12-05T06:57:37;9.37;;;5.40;;
17032;SDS011;63208;52.178;21.016;2022-12-05T07:00:05;8.67;;;5.20;;
17032;SDS011;63208;52.178;21.016;2022-12-05T07:02:59;14.23;;;5.83;;
17032;SDS011;63208;52.178;21.016;2022-12-05T07:05:26;8.70;;;4.93;;
17032;SDS011;63208;52.178;21.016;2022-12-05T07:07:53;9.30;;;4.63;;
17032;SDS011;63208;52.178;21.016;2022-12-05T07:10:21;10.13;;;5.70;;
17032;SDS011;63208;52.178;21.016;2022-12-05T07:12:48;7.40;;;5.37;;
17032;SDS011;63208;52.178;21.016;2022-12-05T07:15:15;9.40;;;6.00;;
17032;SDS011;63208;52.178;21.016;2022-12-05T07:18:02;10.50;;;5.43;;
17032;SDS011;63208;52.178;21.016;2022-12-05T07:29:13;8.53;;;4.97;;
17032;SDS011;63208;52.178;21.016;2022-12-05T07:31:40;7.77;;;5.10;;
17032;SDS011;63208;52.178;21.016;2022-12-05T07:45:20;9.40;;;5.20;;
17032;SDS011;63208;52.178;21.016;2022-12-05T07:47:47;8.73;;;4.67;;
17032;SDS011;63208;52.178;21.016;2022-12-05T07:50:15;12.37;;;6.17;;
17032;SDS011;63208;52.178;21.016;2022-12-05T07:52:43;10.87;;;5.10;;
17032;SDS011;63208;52.178;21.016;2022-12-05T07:55:14;11.20;;;5.83;;
17032;SDS011;63208;52.178;21.016;2022-12-05T07:57:42;9.73;;;5.80;;
17032;SDS011;63208;52.178;21.016;2022-12-05T08:00:09;7.47;;;4.77;;
17032;SDS011;63208;52.178;21.016;2022-12-05T08:02:38;10.40;;;5.50;;
17032;SDS011;63208;52.178;21.016;2022-12-05T08:05:06;11.47;;;5.20;;
17032;SDS011;63208;52.178;21.016;2022-12-05T08:07:33;9.47;;;5.07;;
17032;SDS011;63208;52.178;21.016;2022-12-05T08:10:01;6.90;;;4.40;;
17032;SDS011;63208;52.178;21.016;2022-12-05T08:12:28;8.03;;;4.53;;
17032;SDS011;63208;52.178;21.016;2022-12-05T08:14:55;9.90;;;5.30;;
17032;SDS011;63208;52.178;21.016;2022-12-05T08:17:22;8.53;;;4.87;;
17032;SDS011;63208;52.178;21.016;2022-12-05T08:19:52;9.93;;;5.03;;
17032;SDS011;63208;52.178;21.016;2022-12-05T08:22:19;8.87;;;4.73;;
17032;SDS011;63208;52.178;21.016;2022-12-05T08:24:48;9.37;;;5.13;;
17032;SDS011;63208;52.178;21.016;2022-12-05T08:39:55;9.23;;;5.67;;
17032;SDS011;63208;52.178;21.016;2022-12-05T08:42:36;9.03;;;5.33;;
17032;SDS011;63208;52.178;21.016;2022-12-05T08:45:03;9.87;;;5.23;;
17032;SDS011;63208;52.178;21.016;2022-12-05T08:53:32;11.90;;;5.23;;
17032;SDS011;63208;52.178;21.016;2022-12-05T08:56:02;6.93;;;4.30;;
17032;SDS011;63208;52.178;21.016;2022-12-05T08:58:29;10.47;;;4.73;;
17032;SDS011;63208;52.178;21.016;2022-12-05T09:01:02;10.63;;;5.27;;
17032;SDS011;63208;52.178;21.016;2022-12-05T09:03:30;8.40;;;5.40;;
17032;SDS011;63208;52.178;21.016;2022-12-05T09:06:04;11.00;;;6.43;;
17032;SDS011;63208;52.178;21.016;2022-12-05T09:08:32;11.60;;;5.00;;
17032;SDS011;63208;52.178;21.016;2022-12-05T09:11:03;9.17;;;4.97;;
17032;SDS011;63208;52.178;21.016;2022-12-05T09:13:32;7.03;;;5.13;;
17032;SDS011;63208;52.178;21.016;2022-12-05T09:16:03;10.67;;;5.83;;
17032;SDS011;63208;52.178;21.016;2022-12-05T09:18:39;7.70;;;5.03;;
17032;SDS011;63208;52.178;21.016;2022-12-05T09:24:24;9.17;;;5.30;;
17032;SDS011;63208;52.178;21.016;2022-12-05T09:26:56;11.23;;;6.33;;
17032;SDS011;63208;52.178;21.016;2022-12-05T09:29:23;11.40;;;5.90;;
17032;SDS011;63208;52.178;21.016;2022-12-05T09:31:53;10.60;;;5.47;;
17032;SDS011;63208;52.178;21.016;2022-12-05T09:34:21;12.77;;;5.97;;
17032;SDS011;63208;52.178;21.016;2022-12-05T09:36:50;8.40;;;5.03;;
17032;SDS011;63208;52.178;21.016;2022-12-05T09:42:54;9.20;;;4.77;;
17032;SDS011;63208;52.178;21.016;2022-12-05T09:45:28;8.67;;;5.80;;
17032;SDS011;63208;52.178;21.016;2022-12-05T09:47:59;9.23;;;5.07;;
17032;SDS011;63208;52.178;21.016;2022-12-05T09:50:32;11.57;;;5.63;;
17032;SDS011;63208;52.178;21.016;2022-12-05T09:53:09;11.13;;;5.60;;
17032;SDS011;63208;52.178;21.016;2022-12-05T09:55:45;9.37;;;5.57;;
17032;SDS011;63208;52.178;21.016;2022-12-05T09:58:19;12.17;;;6.03;;
17032;SDS011;63208;52.178;21.016;2022-12-05T10:01:21;10.30;;;5.93;;
17032;SDS011;63208;52.178;21.016;2022-12-05T10:04:00;7.57;;;4.97;;
17032;SDS011;63208;52.178;21.016;2022-12-05T10:06:40;10.30;;;5.73;;
17032;SDS011;63208;52.178;21.016;2022-12-05T10:09:25;12.40;;;5.87;;
17032;SDS011;63208;52.178;21.016;2022-12-05T10:12:04;9.30;;;5.60;;
17032;SDS011;63208;52.178;21.016;2022-12-05T10:14:43;14.67;;;5.87;;
17032;SDS011;63208;52.178;21.016;2022-12-05T10:17:24;9.37;;;5.87;;
17032;SDS011;63208;52.178;21.016;2022-12-05T10:19:56;9.27;;;5.07;;
17032;SDS011;63208;52.178;21.016;2022-12-05T10:22:29;10.90;;;5.40;;
17032;SDS011;63208;52.178;21.016;2022-12-05T10:25:05;12.67;;;6.30;;
17032;SDS011;63208;52.178;21.016;2022-12-05T10:27:35;10.53;;;6.03;;
17032;SDS011;63208;52.178;21.016;2022-12-05T10:30:14;11.53;;;5.63;;
17032;SDS011;63208;52.178;21.016;2022-12-05T10:32:49;11.20;;;5.70;;
17032;SDS011;63208;52.178;21.016;2022-12-05T10:37:45;12.07;;;6.33;;
17032;SDS011;63208;52.178;21.016;2022-12-05T10:40:14;12.53;;;5.57;;
17032;SDS011;63208;52.178;21.016;2022-12-05T10:42:42;12.03;;;6.07;;
17032;SDS011;63208;52.178;21.016;2022-12-05T10:45:14;16.90;;;6.63;;
17032;SDS011;63208;52.178;21.016;2022-12-05T10:47:44;9.20;;;5.53;;
17032;SDS011;63208;52.178;21.016;2022-12-05T10:50:20;10.50;;;5.83;;
17032;SDS011;63208;52.178;21.016;2022-12-05T10:52:50;11.73;;;6.23;;
17032;SDS011;63208;52.178;21.016;2022-12-05T10:55:18;15.00;;;5.80;;
17032;SDS011;63208;52.178;21.016;2022-12-05T10:57:48;13.57;;;6.33;;
17032;SDS011;63208;52.178;21.016;2022-12-05T11:00:19;12.43;;;6.33;;
17032;SDS011;63208;52.178;21.016;2022-12-05T11:02:49;13.40;;;6.17;;
17032;SDS011;63208;52.178;21.016;2022-12-05T11:05:26;13.83;;;6.37;;
17032;SDS011;63208;52.178;21.016;2022-12-05T11:07:55;14.70;;;6.27;;
17032;SDS011;63208;52.178;21.016;2022-12-05T11:10:25;15.37;;;7.47;;
17032;SDS011;63208;52.178;21.016;2022-12-05T11:12:56;12.20;;;6.77;;
17032;SDS011;63208;52.178;21.016;2022-12-05T11:15:26;14.47;;;7.10;;
17032;SDS011;63208;52.178;21.016;2022-12-05T11:17:55;18.37;;;7.83;;
17032;SDS011;63208;52.178;21.016;2022-12-05T11:20:38;15.10;;;6.03;;
17032;SDS011;63208;52.178;21.016;2022-12-05T11:26:14;14.07;;;7.20;;
17032;SDS011;63208;52.178;21.016;2022-12-05T11:28:43;15.50;;;7.27;;
17032;SDS011;63208;52.178;21.016;2022-12-05T11:31:24;14.90;;;6.10;;
17032;SDS011;63208;52.178;21.016;2022-12-05T11:34:26;11.37;;;5.40;;
17032;SDS011;63208;52.178;21.016;2022-12-05T11:36:59;15.93;;;6.60;;
17032;SDS011;63208;52.178;21.016;2022-12-05T11:39:30;15.40;;;6.70;;
17032;SDS011;63208;52.178;21.016;2022-12-05T11:47:58;13.80;;;7.23;;
17032;SDS011;63208;52.178;21.016;2022-12-05T11:54:05;11.93;;;5.87;;
17032;SDS011;63208;52.178;21.016;2022-12-05T11:57:00;13.80;;;6.03;;
17032;SDS011;63208;52.178;21.016;2022-12-05T11:59:35;13.27;;;6.10;;
17032;SDS011;63208;52.178;21.016;2022-12-05T12:02:25;12.77;;;6.20;;
17032;SDS011;63208;52.178;21.016;2022-12-05T12:05:06;15.53;;;6.57;;
17032;SDS011;63208;52.178;21.016;2022-12-05T12:07:48;15.60;;;6.87;;
17032;SDS011;63208;52.178;21.016;2022-12-05T12:10:24;15.47;;;6.43;;
17032;SDS011;63208;52.178;21.016;2022-12-05T12:13:05;12.37;;;6.53;;
17032;SDS011;63208;52.178;21.016;2022-12-05T12:15:47;16.10;;;8.20;;
17032;SDS011;63208;52.178;21.016;2022-12-05T12:18:37;12.20;;;7.10;;
17032;SDS011;63208;52.178;21.016;2022-12-05T12:21:19;12.23;;;6.30;;
17032;SDS011;63208;52.178;21.016;2022-12-05T12:23:57;17.87;;;7.67;;
17032;SDS011;63208;52.178;21.016;2022-12-05T12:26:34;16.27;;;7.37;;
17032;SDS011;63208;52.178;21.016;2022-12-05T12:29:13;12.73;;;6.83;;
17032;SDS011;63208;52.178;21.016;2022-12-05T12:31:54;15.23;;;7.03;;
17032;SDS011;63208;52.178;21.016;2022-12-05T12:37:26;14.53;;;6.70;;
17032;SDS011;63208;52.178;21.016;2022-12-05T12:40:06;17.33;;;6.60;;
17032;SDS011;63208;52.178;21.016;2022-12-05T12:42:54;12.17;;;7.07;;
17032;SDS011;63208;52.178;21.016;2022-12-05T12:48:18;11.80;;;6.67;;
17032;SDS011;63208;52.178;21.016;2022-12-05T12:51:19;14.27;;;6.60;;
17032;SDS011;63208;52.178;21.016;2022-12-05T12:53:56;14.77;;;6.87;;
17032;SDS011;63208;52.178;21.016;2022-12-05T12:56:38;15.30;;;6.97;;
17032;SDS011;63208;52.178;21.016;2022-12-05T13:02:20;16.27;;;7.00;;
17032;SDS011;63208;52.178;21.016;2022-12-05T13:04:53;17.03;;;7.90;;
17032;SDS011;63208;52.178;21.016;2022-12-05T13:07:25;15.43;;;6.47;;
17032;SDS011;63208;52.178;21.016;2022-12-05T13:10:00;17.20;;;7.07;;
17032;SDS011;63208;52.178;21.016;2022-12-05T13:12:31;14.80;;;8.20;;
17032;SDS011;63208;52.178;21.016;2022-12-05T13:15:04;14.50;;;6.53;;
17032;SDS011;63208;52.178;21.016;2022-12-05T13:17:36;13.53;;;7.03;;
17032;SDS011;63208;52.178;21.016;2022-12-05T13:20:09;14.10;;;6.20;;
17032;SDS011;63208;52.178;21.016;2022-12-05T13:22:41;13.73;;;7.07;;
17032;SDS011;63208;52.178;21.016;2022-12-05T13:25:13;14.73;;;7.07;;
17032;SDS011;63208;52.178;21.016;2022-12-05T13:27:49;17.13;;;7.83;;
17032;SDS011;63208;52.178;21.016;2022-12-05T13:30:21;16.47;;;6.43;;
17032;SDS011;63208;52.178;21.016;2022-12-05T13:32:54;16.07;;;7.43;;
17032;SDS011;63208;52.178;21.016;2022-12-05T13:35:25;14.50;;;7.63;;
17032;SDS011;63208;52.178;21.016;2022-12-05T13:38:20;11.83;;;6.67;;
17032;SDS011;63208;52.178;21.016;2022-12-05T13:41:19;16.23;;;7.83;;
17032;SDS011;63208;52.178;21.016;2022-12-05T13:44:03;19.27;;;6.80;;
17032;SDS011;63208;52.178;21.016;2022-12-05T13:46:36;19.33;;;7.37;;
17032;SDS011;63208;52.178;21.016;2022-12-05T13:52:13;13.77;;;6.43;;
17032;SDS011;63208;52.178;21.016;2022-12-05T13:54:46;11.87;;;6.77;;
17032;SDS011;63208;52.178;21.016;2022-12-05T14:00:28;15.63;;;7.53;;
17032;SDS011;63208;52.178;21.016;2022-12-05T14:02:58;12.70;;;7.17;;
17032;SDS011;63208;52.178;21.016;2022-12-05T14:05:36;19.27;;;7.90;;
17032;SDS011;63208;52.178;21.016;2022-12-05T14:11:28;18.77;;;7.80;;
17032;SDS011;63208;52.178;21.016;2022-12-05T14:13:56;13.63;;;7.73;;
17032;SDS011;63208;52.178;21.016;2022-12-05T14:22:36;17.67;;;7.63;;
17032;SDS011;63208;52.178;21.016;2022-12-05T14:25:52;17.03;;;7.13;;
17032;SDS011;63208;52.178;21.016;2022-12-05T14:28:39;19.83;;;8.43;;
17032;SDS011;63208;52.178;21.016;2022-12-05T14:31:24;13.73;;;6.80;;
17032;SDS011;63208;52.178;21.016;2022-12-05T14:34:15;14.87;;;7.40;;
17032;SDS011;63208;52.178;21.016;2022-12-05T14:37:36;16.67;;;6.87;;
17032;SDS011;63208;52.178;21.016;2022-12-05T14:39:57;17.33;;;7.70;;
17032;SDS011;63208;52.178;21.016;2022-12-05T14:42:28;15.30;;;7.17;;
17032;SDS011;63208;52.178;21.016;2022-12-05T14:45:03;18.00;;;7.47;;
17032;SDS011;63208;52.178;21.016;2022-12-05T14:53:52;13.73;;;6.67;;
17032;SDS011;63208;52.178;21.016;2022-12-05T15:09:56;12.03;;;6.23;;
17032;SDS011;63208;52.178;21.016;2022-12-05T15:12:37;15.97;;;8.13;;
17032;SDS011;63208;52.178;21.016;2022-12-05T15:15:12;17.27;;;7.67;;
17032;SDS011;63208;52.178;21.016;2022-12-05T15:24:35;19.10;;;6.63;;
17032;SDS011;63208;52.178;21.016;2022-12-05T15:27:04;13.67;;;7.20;;
17032;SDS011;63208;52.178;21.016;2022-12-05T15:29:36;16.03;;;7.53;;
17032;SDS011;63208;52.178;21.016;2022-12-05T15:32:12;12.07;;;7.37;;
17032;SDS011;63208;52.178;21.016;2022-12-05T15:34:43;17.47;;;8.30;;
17032;SDS011;63208;52.178;21.016;2022-12-05T15:37:14;17.80;;;8.17;;
17032;SDS011;63208;52.178;21.016;2022-12-05T15:39:50;20.57;;;9.63;;
17032;SDS011;63208;52.178;21.016;2022-12-05T15:42:21;15.60;;;7.43;;
17032;SDS011;63208;52.178;21.016;2022-12-05T15:44:49;16.40;;;7.67;;
17032;SDS011;63208;52.178;21.016;2022-12-05T15:47:18;19.60;;;7.57;;
17032;SDS011;63208;52.178;21.016;2022-12-05T15:49:47;16.20;;;7.80;;
17032;SDS011;63208;52.178;21.016;2022-12-05T15:52:22;15.83;;;8.53;;
17032;SDS011;63208;52.178;21.016;2022-12-05T15:55:10;19.80;;;7.50;;
17032;SDS011;63208;52.178;21.016;2022-12-05T15:57:43;16.93;;;8.83;;
17032;SDS011;63208;52.178;21.016;2022-12-05T16:03:04;17.60;;;7.63;;
17032;SDS011;63208;52.178;21.016;2022-12-05T16:05:38;19.13;;;7.40;;
17032;SDS011;63208;52.178;21.016;2022-12-05T16:08:12;18.97;;;7.97;;
17032;SDS011;63208;52.178;21.016;2022-12-05T16:10:39;15.17;;;8.17;;
17032;SDS011;63208;52.178;21.016;2022-12-05T16:13:11;16.07;;;7.60;;
17032;SDS011;63208;52.178;21.016;2022-12-05T16:15:41;17.40;;;9.27;;
17032;SDS011;63208;52.178;21.016;2022-12-05T16:18:20;16.10;;;7.80;;
17032;SDS011;63208;52.178;21.016;2022-12-05T16:20:50;17.97;;;8.50;;
17032;SDS011;63208;52.178;21.016;2022-12-05T16:23:22;18.17;;;8.63;;
17032;SDS011;63208;52.178;21.016;2022-12-05T16:25:51;20.00;;;8.97;;
17032;SDS011;63208;52.178;21.016;2022-12-05T16:28:20;17.57;;;8.93;;
17032;SDS011;63208;52.178;21.016;2022-12-05T16:30:57;19.20;;;8.20;;
17032;SDS011;63208;52.178;21.016;2022-12-05T16:33:28;17.87;;;7.87;;
17032;SDS011;63208;52.178;21.016;2022-12-05T16:35:56;18.60;;;7.77;;
17032;SDS011;63208;52.178;21.016;2022-12-05T16:38:33;17.20;;;7.77;;
17032;SDS011;63208;52.178;21.016;2022-12-05T16:41:00;15.53;;;8.20;;
17032;SDS011;63208;52.178;21.016;2022-12-05T16:43:41;15.90;;;9.00;;
17032;SDS011;63208;52.178;21.016;2022-12-05T16:46:30;18.93;;;7.90;;
17032;SDS011;63208;52.178;21.016;2022-12-05T16:55:55;16.93;;;7.70;;
17032;SDS011;63208;52.178;21.016;2022-12-05T16:58:31;20.73;;;8.63;;
17032;SDS011;63208;52.178;21.016;2022-12-05T17:01:14;16.20;;;8.23;;
17032;SDS011;63208;52.178;21.016;2022-12-05T17:03:48;19.43;;;8.70;;
17032;SDS011;63208;52.178;21.016;2022-12-05T17:15:44;17.10;;;8.20;;
17032;SDS011;63208;52.178;21.016;2022-12-05T17:18:17;14.43;;;8.13;;
17032;SDS011;63208;52.178;21.016;2022-12-05T17:24:16;15.67;;;7.73;;
17032;SDS011;63208;52.178;21.016;2022-12-05T17:30:06;22.50;;;9.13;;
17032;SDS011;63208;52.178;21.016;2022-12-05T17:32:34;17.70;;;8.97;;
17032;SDS011;63208;52.178;21.016;2022-12-05T17:38:11;15.83;;;7.77;;
17032;SDS011;63208;52.178;21.016;2022-12-05T17:40:39;18.57;;;8.87;;
17032;SDS011;63208;52.178;21.016;2022-12-05T17:43:08;13.67;;;6.70;;
17032;SDS011;63208;52.178;21.016;2022-12-05T17:48:53;17.57;;;8.10;;
17032;SDS011;63208;52.178;21.016;2022-12-05T17:51:21;21.10;;;9.77;;
17032;SDS011;63208;52.178;21.016;2022-12-05T17:53:50;17.33;;;8.20;;
17032;SDS011;63208;52.178;21.016;2022-12-05T17:56:18;17.03;;;8.73;;
17032;SDS011;63208;52.178;21.016;2022-12-05T17:58:45;20.47;;;9.03;;
17032;SDS011;63208;52.178;21.016;2022-12-05T18:01:14;20.97;;;9.03;;
17032;SDS011;63208;52.178;21.016;2022-12-05T18:03:42;15.77;;;8.00;;
17032;SDS011;63208;52.178;21.016;2022-12-05T18:08:54;22.83;;;9.70;;
17032;SDS011;63208;52.178;21.016;2022-12-05T18:11:22;21.70;;;10.20;;
17032;SDS011;63208;52.178;21.016;2022-12-05T18:14:01;14.17;;;8.33;;
17032;SDS011;63208;52.178;21.016;2022-12-05T18:19:39;15.47;;;8.93;;
17032;SDS011;63208;52.178;21.016;2022-12-05T18:22:09;18.93;;;9.63;;
17032;SDS011;63208;52.178;21.016;2022-12-05T18:24:37;17.80;;;8.27;;
17032;SDS011;63208;52.178;21.016;2022-12-05T18:27:04;15.83;;;8.67;;
17032;SDS011;63208;52.178;21.016;2022-12-05T18:29:31;14.77;;;8.60;;
17032;SDS011;63208;52.178;21.016;2022-12-05T18:31:58;15.87;;;8.23;;
17032;SDS011;63208;52.178;21.016;2022-12-05T18:34:26;17.90;;;8.73;;
17032;SDS011;63208;52.178;21.016;2022-12-05T18:36:53;18.13;;;8.53;;
17032;SDS011;63208;52.178;21.016;2022-12-05T18:39:21;15.57;;;9.30;;
17032;SDS011;63208;52.178;21.016;2022-12-05T18:41:49;15.37;;;8.13;;
17032;SDS011;63208;52.178;21.016;2022-12-05T18:44:16;17.20;;;8.10;;
17032;SDS011;63208;52.178;21.016;2022-12-05T18:46:52;19.77;;;8.87;;
17032;SDS011;63208;52.178;21.016;2022-12-05T18:49:19;19.17;;;8.80;;
17032;SDS011;63208;52.178;21.016;2022-12-05T18:51:47;17.47;;;8.73;;
17032;SDS011;63208;52.178;21.016;2022-12-05T18:54:14;17.00;;;8.50;;
17032;SDS011;63208;52.178;21.016;2022-12-05T18:59:12;20.20;;;8.83;;
17032;SDS011;63208;52.178;21.016;2022-12-05T19:01:41;21.63;;;9.20;;
17032;SDS011;63208;52.178;21.016;2022-12-05T19:04:10;19.37;;;8.87;;
17032;SDS011;63208;52.178;21.016;2022-12-05T19:06:40;15.17;;;8.47;;
17032;SDS011;63208;52.178;21.016;2022-12-05T19:09:12;18.33;;;8.87;;
17032;SDS011;63208;52.178;21.016;2022-12-05T19:11:41;13.70;;;7.93;;
17032;SDS011;63208;52.178;21.016;2022-12-05T19:14:09;16.23;;;8.43;;
17032;SDS011;63208;52.178;21.016;2022-12-05T19:16:38;17.97;;;8.03;;
17032;SDS011;63208;52.178;21.016;2022-12-05T19:19:05;21.33;;;10.73;;
17032;SDS011;63208;52.178;21.016;2022-12-05T19:21:34;20.53;;;9.63;;
17032;SDS011;63208;52.178;21.016;2022-12-05T19:24:03;18.63;;;8.60;;
17032;SDS011;63208;52.178;21.016;2022-12-05T19:26:31;16.90;;;8.70;;
17032;SDS011;63208;52.178;21.016;2022-12-05T19:28:59;16.00;;;8.97;;
17032;SDS011;63208;52.178;21.016;2022-12-05T19:31:26;14.70;;;8.13;;
17032;SDS011;63208;52.178;21.016;2022-12-05T19:33:57;19.87;;;8.67;;
17032;SDS011;63208;52.178;21.016;2022-12-05T19:36:26;17.67;;;8.67;;
17032;SDS011;63208;52.178;21.016;2022-12-05T19:38:54;22.07;;;9.20;;
17032;SDS011;63208;52.178;21.016;2022-12-05T19:41:22;18.00;;;9.23;;
17032;SDS011;63208;52.178;21.016;2022-12-05T20:17:58;19.30;;;8.37;;
17032;SDS011;63208;52.178;21.016;2022-12-05T20:20:25;18.10;;;8.67;;
17032;SDS011;63208;52.178;21.016;2022-12-05T20:22:53;20.70;;;9.87;;
17032;SDS011;63208;52.178;21.016;2022-12-05T20:25:21;17.47;;;8.40;;
17032;SDS011;63208;52.178;21.016;2022-12-05T20:27:49;21.97;;;10.17;;
17032;SDS011;63208;52.178;21.016;2022-12-05T20:30:17;17.07;;;9.10;;
17032;SDS011;63208;52.178;21.016;2022-12-05T20:32:44;18.07;;;9.10;;
17032;SDS011;63208;52.178;21.016;2022-12-05T20:35:11;18.23;;;10.10;;
17032;SDS011;63208;52.178;21.016;2022-12-05T20:37:38;14.30;;;8.47;;
17032;SDS011;63208;52.178;21.016;2022-12-05T20:40:07;19.33;;;9.27;;
17032;SDS011;63208;52.178;21.016;2022-12-05T20:42:34;16.20;;;9.80;;